Time;durP1;ratioP1;P1;durP2;ratioP2;P2;SDS_P1;SDS_P2;PMS_P1;PMS_P2;Temp;Humidity;BMP_temperature;BMP_pressure;BME280_temperature;BME280_humidity;BME280_pressure;Samples;Min_cycle;Max_cycle;Signal;HPM_P1;HPM_P2
2021/12/20 00:01:04;;;;;;;0.10;0.10;;;;;;;9.37;73.43;102578.78;7362989;19;20030;-59
2021/12/20 00:03:30;;;;;;;0.00;0.00;;;;;;;9.36;73.11;102574.44;7362766;19;20482;-60
2021/12/20 00:05:55;;;;;;;0.03;0.03;;;;;;;9.37;73.04;102578.78;7361534;19;20006;-60
2021/12/20 00:08:21;;;;;;;0.00;0.00;;;;;;;9.36;73.31;102574.44;7362875;19;20010;-59
2021/12/20 00:10:46;;;;;;;0.00;0.00;;;;;;;9.37;72.95;102570.97;7360666;19;20277;-57
2021/12/20 00:13:12;;;;;;;0.00;0.00;;;;;;;9.36;73.13;102567.47;7358356;19;20026;-59
2021/12/20 00:15:37;;;;;;;0.10;0.10;;;;;;;9.38;73.22;102557.09;7356722;19;20022;-59
2021/12/20 00:18:03;;;;;;;0.00;0.00;;;;;;;9.37;73.15;102555.31;7356290;19;20756;-57
2021/12/20 00:20:28;;;;;;;0.00;0.00;;;;;;;9.39;72.92;102550.16;7361227;19;20013;-59
2021/12/20 00:22:54;;;;;;;0.00;0.00;;;;;;;9.39;73.47;102552.75;7364886;19;20022;-58
2021/12/20 00:25:19;;;;;;;0.00;0.00;;;;;;;9.38;72.90;102551.88;7354214;19;20477;-59
2021/12/20 00:27:45;;;;;;;0.00;0.00;;;;;;;9.40;72.97;102550.16;7365075;19;20143;-60
2021/12/20 00:30:11;;;;;;;0.10;0.10;;;;;;;9.41;73.17;102559.72;7363393;19;20007;-58
2021/12/20 00:32:37;;;;;;;0.00;0.00;;;;;;;9.41;73.44;102553.63;7355981;19;20018;-60
2021/12/20 00:35:04;;;;;;;0.00;0.00;;;;;;;9.42;73.11;102553.63;7361487;19;20101;-59
2021/12/20 00:40:20;;;;;;;0.00;0.00;;;;;;;9.43;73.43;102554.50;7364542;19;20083;-58
2021/12/20 00:42:48;;;;;;;0.08;0.08;;;;;;;9.44;73.19;102549.34;7357420;19;20078;-59
2021/12/20 00:45:14;;;;;;;0.00;0.00;;;;;;;9.46;73.32;102551.94;7360626;19;20152;-58
2021/12/20 00:47:41;;;;;;;0.00;0.00;;;;;;;9.47;73.25;102546.75;7370132;19;20014;-59
2021/12/20 00:50:09;;;;;;;0.10;0.10;;;;;;;9.46;73.22;102545.00;7368139;19;20019;-59
2021/12/20 00:52:34;;;;;;;0.00;0.00;;;;;;;9.39;73.47;102532.75;7368767;19;20549;-60
2021/12/20 00:55:00;;;;;;;0.00;0.00;;;;;;;9.50;73.18;102552.00;7366444;19;20100;-60
2021/12/20 00:57:26;;;;;;;0.10;0.10;;;;;;;9.52;73.33;102547.66;7360369;19;20022;-59
2021/12/20 00:59:51;;;;;;;0.00;0.00;;;;;;;9.53;73.50;102535.50;7363852;19;20010;-59
2021/12/20 01:02:17;;;;;;;0.00;0.00;;;;;;;9.54;73.30;102538.16;7370884;19;20014;-58
2021/12/20 01:04:42;;;;;;;0.08;0.08;;;;;;;9.54;72.96;102538.16;7366241;19;20040;-58
2021/12/20 01:07:08;;;;;;;0.00;0.00;;;;;;;9.54;73.00;102535.53;7365524;19;20006;-59
2021/12/20 01:09:33;;;;;;;0.08;0.08;;;;;;;9.48;73.10;102522.44;7372383;19;20051;-60
2021/12/20 01:12:02;;;;;;;0.00;0.00;;;;;;;9.53;72.87;102531.19;7363186;19;20011;-59
2021/12/20 01:14:30;;;;;;;0.00;0.00;;;;;;;9.46;73.39;102518.94;7367802;19;20018;-59
2021/12/20 01:17:02;;;;;;;0.10;0.10;;;;;;;9.50;73.25;102520.72;7363425;19;20046;-58
2021/12/20 01:19:27;;;;;;;0.10;0.10;;;;;;;9.45;73.16;102511.97;7366644;19;20006;-59
2021/12/20 01:21:53;;;;;;;0.00;0.00;;;;;;;9.52;72.98;102526.81;7368070;19;20061;-58
2021/12/20 01:24:18;;;;;;;0.00;0.00;;;;;;;9.53;73.06;102525.97;7368091;19;20010;-59
2021/12/20 01:26:44;;;;;;;0.10;0.10;;;;;;;9.52;73.12;102524.19;7365703;19;20010;-59
2021/12/20 01:29:09;;;;;;;0.00;0.00;;;;;;;9.38;73.15;102493.63;7358723;19;20027;-60
2021/12/20 01:31:35;;;;;;;0.00;0.00;;;;;;;9.53;73.24;102518.16;7365994;19;20014;-59
2021/12/20 01:34:00;;;;;;;0.10;0.10;;;;;;;9.53;73.45;102520.75;7362116;19;20032;-59
2021/12/20 01:36:26;;;;;;;0.05;0.05;;;;;;;9.53;72.98;102514.63;7364449;19;20014;-60
2021/12/20 01:38:51;;;;;;;0.08;0.08;;;;;;;9.53;73.57;102520.75;7366280;19;20480;-59
2021/12/20 01:41:17;;;;;;;0.00;0.00;;;;;;;9.53;73.17;102519.84;7359085;19;20018;-59
2021/12/20 01:43:42;;;;;;;0.00;0.00;;;;;;;9.53;73.14;102519.84;7368935;19;20026;-59
2021/12/20 01:46:08;;;;;;;0.00;0.00;;;;;;;9.53;73.28;102512.94;7362537;19;20043;-58
2021/12/20 01:48:35;;;;;;;0.00;0.00;;;;;;;9.51;73.42;102516.38;7367668;19;20038;-59
2021/12/20 01:51:43;;;;;;;0.08;0.08;;;;;;;9.41;73.01;102499.75;7367899;19;20022;-59
2021/12/20 01:54:04;;;;;;;0.00;0.00;;;;;;;9.49;73.01;102513.75;7259676;19;2004385;-58
2021/12/20 01:56:33;;;;;;;0.00;0.00;;;;;;;9.49;73.25;102511.16;7366759;19;20018;-59
2021/12/20 01:59:07;;;;;;;0.00;0.00;;;;;;;9.44;73.36;102499.78;7360056;19;20077;-60
2021/12/20 02:01:33;;;;;;;0.00;0.00;;;;;;;9.42;73.28;102496.28;7365009;19;20006;-59
2021/12/20 02:04:02;;;;;;;0.03;0.03;;;;;;;9.46;73.59;102498.06;7365662;19;20010;-60
2021/12/20 02:06:39;;;;;;;0.00;0.00;;;;;;;9.48;73.52;102506.78;7364556;19;20011;-59
2021/12/20 02:09:08;;;;;;;0.00;0.00;;;;;;;9.49;73.43;102503.31;7364458;19;20018;-60
2021/12/20 02:11:34;;;;;;;0.00;0.00;;;;;;;9.47;73.40;102499.81;7367347;19;20011;-60
2021/12/20 02:14:00;;;;;;;0.10;0.10;;;;;;;9.46;73.24;102503.28;7361765;19;20017;-58
2021/12/20 02:16:26;;;;;;;0.00;0.00;;;;;;;9.46;73.19;102503.28;7367888;19;20097;-60
2021/12/20 02:18:51;;;;;;;0.00;0.00;;;;;;;9.44;73.23;102499.78;7363673;19;20010;-59
2021/12/20 02:21:17;;;;;;;0.10;0.10;;;;;;;9.44;73.73;102494.56;7366762;19;20018;-59
2021/12/20 02:23:43;;;;;;;0.00;0.00;;;;;;;9.44;73.75;102499.78;7367416;19;20015;-59
2021/12/20 02:26:12;;;;;;;0.00;0.00;;;;;;;9.44;73.28;102489.38;7364531;19;20007;-59
2021/12/20 02:28:45;;;;;;;0.10;0.10;;;;;;;9.43;73.62;102487.63;7365021;19;20051;-57
2021/12/20 02:39:16;;;;;;;0.00;0.00;;;;;;;9.39;73.39;102472.78;7364604;19;20494;-59
2021/12/20 02:41:42;;;;;;;0.00;0.00;;;;;;;9.35;73.64;102477.09;7367516;19;20007;-59
2021/12/20 02:44:16;;;;;;;0.00;0.00;;;;;;;9.40;73.80;102471.94;7358270;19;20462;-59
2021/12/20 02:49:13;;;;;;;0.10;0.10;;;;;;;9.32;73.74;102463.13;7363113;19;20056;-60
2021/12/20 02:51:39;;;;;;;0.00;0.00;;;;;;;9.40;73.51;102477.16;7359226;19;20010;-59
2021/12/20 02:54:07;;;;;;;0.00;0.00;;;;;;;9.41;73.84;102481.50;7362292;19;20034;-59
2021/12/20 02:56:32;;;;;;;;;;;;;;;9.45;73.06;102479.81;7364650;19;20758;-59
2021/12/20 02:58:59;;;;;;;0.00;0.00;;;;;;;9.35;73.80;102468.41;7361004;19;19925;-59
2021/12/20 03:01:25;;;;;;;0.00;0.00;;;;;;;9.40;73.63;102471.94;7363725;19;20025;-59
2021/12/20 03:03:53;;;;;;;0.00;0.00;;;;;;;9.34;73.87;102475.34;7366256;19;20018;-60
2021/12/20 03:06:37;;;;;;;0.10;0.10;;;;;;;9.28;73.37;102454.44;7361444;19;20102;-59
2021/12/20 03:09:04;;;;;;;0.00;0.00;;;;;;;9.38;73.74;102472.75;7363867;19;20125;-59
2021/12/20 03:11:30;;;;;;;0.10;0.10;;;;;;;9.37;73.96;102474.50;7364823;19;20034;-58
2021/12/20 03:14:07;;;;;;;0.10;0.10;;;;;;;9.38;73.59;102467.53;7361793;19;20010;-58
2021/12/20 03:16:34;;;;;;;0.00;0.00;;;;;;;9.26;74.09;102447.44;7364067;19;20022;-59
2021/12/20 03:19:04;;;;;;;0.08;0.08;;;;;;;9.36;74.07;102464.94;7354196;19;20046;-59
2021/12/20 03:21:30;;;;;;;0.00;0.00;;;;;;;9.35;73.73;102457.97;7361941;19;20014;-59
2021/12/20 03:23:55;;;;;;;0.00;0.00;;;;;;;9.31;73.82;102448.38;7362688;19;20034;-59
2021/12/20 03:26:20;;;;;;;0.10;0.10;;;;;;;9.36;73.95;102460.59;7366078;19;20030;-59
2021/12/20 03:28:47;;;;;;;0.00;0.00;;;;;;;9.35;73.96;102458.84;7358607;19;20021;-59
2021/12/20 03:31:13;;;;;;;0.00;0.00;;;;;;;9.36;74.33;102444.06;7352515;19;20373;-59
2021/12/20 03:33:39;;;;;;;0.10;0.10;;;;;;;9.25;73.90;102420.50;7354988;19;20010;-59
2021/12/20 03:36:05;;;;;;;0.00;0.00;;;;;;;9.22;74.03;102411.75;7365170;19;20039;-58
2021/12/20 03:38:30;;;;;;;0.10;0.10;;;;;;;9.36;73.97;102438.84;7366048;19;20865;-60
2021/12/20 03:40:56;;;;;;;0.10;0.10;;;;;;;9.36;74.44;102438.84;7357563;19;20014;-59
2021/12/20 03:43:24;;;;;;;0.00;0.00;;;;;;;9.35;74.02;102437.97;7358770;19;20025;-59
2021/12/20 03:45:56;;;;;;;0.00;0.00;;;;;;;9.34;74.38;102440.59;7356477;19;20046;-58
2021/12/20 03:48:22;;;;;;;0.05;0.05;;;;;;;9.28;74.28;102436.19;7358598;19;20040;-59
2021/12/20 03:50:47;;;;;;;0.10;0.10;;;;;;;9.35;74.58;102447.53;7352561;19;20011;-59
2021/12/20 03:53:13;;;;;;;0.00;0.00;;;;;;;9.33;74.45;102436.25;7361269;19;20010;-59
2021/12/20 03:55:39;;;;;;;0.10;0.10;;;;;;;9.36;74.19;102444.06;7354285;19;20031;-59
2021/12/20 03:58:04;;;;;;;0.00;0.00;;;;;;;9.35;74.56;102439.72;7357335;19;20027;-59
2021/12/20 04:00:30;;;;;;;0.10;0.10;;;;;;;9.35;74.31;102442.31;7358564;19;20021;-57
2021/12/20 04:02:55;;;;;;;0.00;0.00;;;;;;;9.36;74.20;102431.03;7352172;19;20498;-59
2021/12/20 04:05:21;;;;;;;0.00;0.00;;;;;;;9.35;74.30;102431.91;7364190;19;20466;-59
2021/12/20 04:07:46;;;;;;;0.10;0.10;;;;;;;9.37;74.47;102435.38;7340259;19;20014;-59
2021/12/20 04:10:12;;;;;;;0.00;0.00;;;;;;;9.36;74.23;102439.72;7357351;19;20015;-59
2021/12/20 04:12:37;;;;;;;0.00;0.00;;;;;;;9.36;74.09;102439.72;7365316;19;20010;-59
2021/12/20 04:15:05;;;;;;;0.10;0.10;;;;;;;9.37;74.50;102435.38;7354701;19;20022;-59
2021/12/20 04:17:31;;;;;;;0.10;0.10;;;;;;;9.37;74.22;102440.59;7363356;19;20014;-59
2021/12/20 04:19:56;;;;;;;0.00;0.00;;;;;;;9.36;74.31;102436.25;7353324;19;20010;-59
2021/12/20 04:22:22;;;;;;;0.00;0.00;;;;;;;9.36;74.11;102436.25;7367723;19;20020;-59
2021/12/20 04:24:47;;;;;;;0.00;0.00;;;;;;;9.26;74.52;102418.75;7366548;19;20014;-60
2021/12/20 04:27:13;;;;;;;0.00;0.00;;;;;;;9.36;74.56;102433.63;7365311;19;20042;-59
2021/12/20 04:29:39;;;;;;;0.00;0.00;;;;;;;9.35;74.58;102427.56;7369629;19;20014;-58
2021/12/20 04:32:05;;;;;;;0.05;0.05;;;;;;;9.36;74.13;102428.44;7362877;19;20015;-59
2021/12/20 04:34:30;;;;;;;0.00;0.00;;;;;;;9.36;74.56;102428.44;7373022;19;20024;-58
2021/12/20 04:36:56;;;;;;;0.10;0.10;;;;;;;9.26;74.48;102403.13;7372537;19;20035;-59
2021/12/20 04:39:26;;;;;;;0.00;0.00;;;;;;;9.35;74.49;102421.47;7368543;19;20038;-59
2021/12/20 04:41:51;;;;;;;0.10;0.10;;;;;;;9.27;74.40;102397.03;7373089;19;20089;-59
2021/12/20 04:44:16;;;;;;;0.00;0.00;;;;;;;9.34;74.31;102415.38;7367185;19;20082;-59
2021/12/20 04:46:42;;;;;;;0.00;0.00;;;;;;;9.34;74.27;102409.31;7373487;19;20304;-58
2021/12/20 04:49:07;;;;;;;0.10;0.10;;;;;;;9.33;74.46;102413.66;7367593;19;19998;-60
2021/12/20 04:51:33;;;;;;;0.10;0.10;;;;;;;9.33;74.18;102404.94;7366459;19;20023;-59
2021/12/20 04:53:58;;;;;;;0.00;0.00;;;;;;;9.34;74.36;102409.31;7366095;19;20702;-59
2021/12/20 04:56:24;;;;;;;0.00;0.00;;;;;;;9.34;74.42;102409.31;7368124;19;20035;-58
2021/12/20 04:58:49;;;;;;;0.10;0.10;;;;;;;9.32;74.34;102403.19;7363431;19;20014;-59
2021/12/20 05:01:14;;;;;;;0.00;0.00;;;;;;;9.30;74.35;102397.09;7365735;19;20011;-60
2021/12/20 05:03:40;;;;;;;0.00;0.00;;;;;;;9.34;74.24;102398.88;7368945;19;20022;-58
2021/12/20 05:06:05;;;;;;;0.00;0.00;;;;;;;9.33;74.32;102403.22;7371449;19;20010;-58
2021/12/20 05:08:36;;;;;;;0.00;0.00;;;;;;;9.28;74.43;102396.22;7365920;19;20040;-59
2021/12/20 05:11:05;;;;;;;0.00;0.00;;;;;;;9.33;74.16;102415.38;7367711;19;20086;-57
2021/12/20 05:13:32;;;;;;;0.00;0.00;;;;;;;9.29;74.27;102409.25;7370972;19;20011;-58
2021/12/20 05:15:58;;;;;;;0.00;0.00;;;;;;;9.31;74.25;102404.03;7372089;19;20481;-59
2021/12/20 05:18:23;;;;;;;0.03;0.03;;;;;;;9.30;73.92;102404.91;7365656;19;20014;-59
2021/12/20 05:20:49;;;;;;;0.10;0.10;;;;;;;9.28;73.73;102399.69;7368839;19;20066;-59
2021/12/20 05:23:15;;;;;;;0.00;0.00;;;;;;;9.29;73.77;102405.78;7366207;19;20025;-59
2021/12/20 05:25:41;;;;;;;0.00;0.00;;;;;;;9.28;73.77;102415.34;7365690;19;20021;-59
2021/12/20 05:28:08;;;;;;;0.05;0.05;;;;;;;9.27;74.11;102410.06;7368580;19;20007;-59
2021/12/20 05:30:34;;;;;;;0.00;0.00;;;;;;;9.27;73.80;102403.13;7366528;19;20007;-59
2021/12/20 05:32:59;;;;;;;0.00;0.00;;;;;;;9.27;73.59;102407.47;7369141;19;20010;-59
2021/12/20 05:35:25;;;;;;;0.00;0.00;;;;;;;9.26;73.85;102405.72;7362401;19;20026;-59
2021/12/20 05:37:50;;;;;;;0.00;0.00;;;;;;;9.25;73.90;102396.16;7366337;19;20010;-59
2021/12/20 05:40:17;;;;;;;0.00;0.00;;;;;;;9.24;73.85;102397.03;7365379;19;20011;-59
2021/12/20 05:42:45;;;;;;;0.00;0.00;;;;;;;9.24;73.85;102397.03;7367645;19;20010;-59
2021/12/20 05:45:11;;;;;;;;;;;;;;;9.26;73.72;102392.69;7368337;19;20014;-59
2021/12/20 05:47:37;;;;;;;0.00;0.00;;;;;;;9.14;73.45;102376.94;7368940;19;19931;-59
2021/12/20 05:50:04;;;;;;;0.00;0.00;;;;;;;9.22;73.88;102390.91;7366022;19;20089;-60
2021/12/20 05:52:29;;;;;;;0.00;0.00;;;;;;;9.20;73.82;102390.91;7363915;19;20029;-59
2021/12/20 05:54:55;;;;;;;0.10;0.10;;;;;;;9.18;73.84;102389.16;7359491;19;20007;-59
2021/12/20 05:57:20;;;;;;;0.00;0.00;;;;;;;9.18;73.61;102386.56;7363623;19;20019;-59
2021/12/20 05:59:46;;;;;;;0.00;0.00;;;;;;;9.18;73.76;102386.56;7367583;19;20014;-60
2021/12/20 06:02:12;;;;;;;0.00;0.00;;;;;;;9.16;73.71;102378.69;7367573;19;20011;-59
2021/12/20 06:04:37;;;;;;;0.08;0.08;;;;;;;9.17;74.02;102385.66;7357851;19;20098;-59
2021/12/20 06:07:03;;;;;;;0.10;0.10;;;;;;;9.15;74.13;102376.97;7368876;19;20470;-58
2021/12/20 06:09:29;;;;;;;0.00;0.00;;;;;;;9.04;73.53;102358.59;7364234;19;20006;-58
2021/12/20 06:11:59;;;;;;;0.05;0.05;;;;;;;9.15;73.72;102376.09;7365834;19;20501;-59
2021/12/20 06:14:25;;;;;;;0.00;0.00;;;;;;;9.16;73.80;102377.81;7361398;19;20049;-59
2021/12/20 06:16:50;;;;;;;0.00;0.00;;;;;;;9.14;73.38;102379.56;7363933;19;20014;-58
2021/12/20 06:19:16;;;;;;;0.00;0.00;;;;;;;9.12;73.39;102376.91;7361899;19;20018;-59
2021/12/20 06:21:41;;;;;;;0.00;0.00;;;;;;;9.10;73.57;102379.50;7369176;19;20006;-59
2021/12/20 06:24:07;;;;;;;0.00;0.00;;;;;;;9.11;73.33;102375.16;7363659;19;20085;-57
2021/12/20 06:26:32;;;;;;;0.00;0.00;;;;;;;9.10;73.44;102371.69;7366233;19;20012;-58
2021/12/20 06:28:58;;;;;;;0.10;0.10;;;;;;;9.07;73.53;102363.88;7364303;19;20077;-59
2021/12/20 06:31:23;;;;;;;0.08;0.08;;;;;;;9.07;73.40;102369.06;7364983;19;20014;-59
2021/12/20 06:33:49;;;;;;;0.00;0.00;;;;;;;9.07;73.30;102374.28;7368105;19;20056;-59
2021/12/20 06:36:15;;;;;;;0.08;0.08;;;;;;;9.06;73.59;102380.34;7366881;19;20140;-59
2021/12/20 06:38:45;;;;;;;0.00;0.00;;;;;;;9.06;73.81;102367.31;7363678;19;20633;-58
2021/12/20 06:41:11;;;;;;;0.00;0.00;;;;;;;9.05;73.34;102385.53;7361109;19;20018;-59
2021/12/20 06:43:37;;;;;;;0.08;0.08;;;;;;;9.04;73.71;102379.47;7362323;19;20020;-58
2021/12/20 06:46:03;;;;;;;0.10;0.10;;;;;;;9.03;73.77;102372.50;7365442;19;20007;-59
2021/12/20 06:48:28;;;;;;;0.10;0.10;;;;;;;9.03;73.44;102372.50;7366146;19;20023;-59
2021/12/20 06:50:54;;;;;;;0.10;0.10;;;;;;;9.01;73.57;102369.00;7364716;19;20006;-59
2021/12/20 06:53:19;;;;;;;0.00;0.00;;;;;;;8.99;73.29;102364.63;7364178;19;20708;-59
2021/12/20 06:55:45;;;;;;;0.00;0.00;;;;;;;8.93;73.51;102355.03;7367012;19;20021;-57
2021/12/20 06:58:10;;;;;;;0.00;0.00;;;;;;;8.90;73.69;102344.56;7363258;19;20070;-59
2021/12/20 07:00:36;;;;;;;0.00;0.00;;;;;;;8.99;73.50;102365.50;7364710;19;20470;-58
2021/12/20 07:03:02;;;;;;;0.00;0.00;;;;;;;9.03;73.48;102377.72;7362295;19;20014;-57
2021/12/20 07:05:27;;;;;;;0.00;0.00;;;;;;;9.02;73.46;102373.38;7365737;19;20014;-58
2021/12/20 07:07:53;;;;;;;0.00;0.00;;;;;;;9.03;73.38;102367.28;7365281;19;20038;-59
2021/12/20 07:10:19;;;;;;;0.00;0.00;;;;;;;8.98;73.83;102363.75;7363748;19;20070;-58
2021/12/20 07:12:44;;;;;;;0.00;0.00;;;;;;;8.93;73.40;102349.81;7359483;19;20070;-59
2021/12/20 07:15:12;;;;;;;0.00;0.00;;;;;;;9.04;73.71;102363.81;7365331;19;20014;-59
2021/12/20 07:17:38;;;;;;;;;;;;;;;9.10;73.34;102363.88;7363102;19;20006;-60
2021/12/20 07:20:05;;;;;;;0.00;0.00;;;;;;;9.07;73.27;102374.28;7360706;19;19914;-59
2021/12/20 07:22:30;;;;;;;0.00;0.00;;;;;;;9.08;73.31;102370.81;7365758;19;20014;-58
2021/12/20 07:24:56;;;;;;;0.08;0.08;;;;;;;9.05;73.50;102362.97;7364487;19;20006;-60
2021/12/20 07:27:21;;;;;;;0.10;0.10;;;;;;;9.06;73.56;102367.31;7360686;19;20006;-59
2021/12/20 07:29:47;;;;;;;0.10;0.10;;;;;;;9.07;73.42;102360.34;7362578;19;20022;-59
2021/12/20 07:32:13;;;;;;;0.05;0.05;;;;;;;9.07;73.50;102360.34;7363698;19;20003;-59
2021/12/20 07:34:39;;;;;;;0.00;0.00;;;;;;;9.06;73.48;102362.09;7366994;19;20007;-58
2021/12/20 07:37:05;;;;;;;0.10;0.10;;;;;;;9.05;73.46;102362.97;7359540;19;20015;-58
2021/12/20 07:39:31;;;;;;;0.10;0.10;;;;;;;9.07;73.87;102358.66;7362567;19;20340;-59
2021/12/20 07:41:57;;;;;;;0.00;0.00;;;;;;;8.98;73.26;102342.91;7365029;19;20006;-58
2021/12/20 07:44:23;;;;;;;0.10;0.10;;;;;;;9.07;73.42;102348.22;7365145;19;20023;-59
2021/12/20 07:46:49;;;;;;;0.00;0.00;;;;;;;9.08;73.42;102349.97;7364846;19;20077;-59
2021/12/20 07:49:15;;;;;;;0.00;0.00;;;;;;;9.07;73.67;102342.13;7360782;19;20036;-59
2021/12/20 07:51:40;;;;;;;0.00;0.00;;;;;;;9.09;73.34;102351.72;7361073;19;20015;-59
2021/12/20 07:54:06;;;;;;;0.05;0.05;;;;;;;9.05;73.82;102331.69;7358807;19;20017;-59
2021/12/20 07:56:32;;;;;;;0.00;0.00;;;;;;;9.04;73.51;102327.34;7359292;19;20355;-59
2021/12/20 07:58:57;;;;;;;0.00;0.00;;;;;;;9.10;73.62;102337.81;7356506;19;20014;-58
2021/12/20 08:01:23;;;;;;;0.03;0.03;;;;;;;9.05;73.68;102329.06;7359736;19;20018;-59
2021/12/20 08:03:48;;;;;;;0.08;0.08;;;;;;;9.13;73.79;102343.94;7361906;19;20019;-59
2021/12/20 08:06:14;;;;;;;0.00;0.00;;;;;;;9.13;73.85;102342.19;7364777;19;20462;-59
2021/12/20 08:08:40;;;;;;;0.00;0.00;;;;;;;9.15;73.89;102342.19;7357380;19;20048;-59
2021/12/20 08:11:07;;;;;;;0.10;0.10;;;;;;;9.17;73.89;102348.28;7362992;19;20022;-59
2021/12/20 08:13:32;;;;;;;0.00;0.00;;;;;;;9.01;73.88;102321.22;7352659;19;20095;-59
2021/12/20 08:15:58;;;;;;;0.00;0.00;;;;;;;9.18;73.56;102352.66;7360387;19;20093;-59
2021/12/20 08:18:23;;;;;;;0.00;0.00;;;;;;;9.17;73.79;102343.06;7361533;19;20403;-59
2021/12/20 08:20:49;;;;;;;0.00;0.00;;;;;;;9.19;73.78;102351.81;7357546;19;20411;-58
2021/12/20 08:23:14;;;;;;;0.10;0.10;;;;;;;9.18;73.49;102345.72;7363998;19;20021;-59
2021/12/20 08:25:42;;;;;;;0.05;0.05;;;;;;;9.20;73.19;102353.53;7361183;19;20006;-59
2021/12/20 08:28:07;;;;;;;0.08;0.08;;;;;;;9.21;73.05;102350.06;7356021;19;20082;-60
2021/12/20 08:30:33;;;;;;;0.10;0.10;;;;;;;9.19;73.09;102347.47;7357500;19;20797;-59
2021/12/20 08:33:00;;;;;;;0.00;0.00;;;;;;;9.20;73.10;102348.34;7362658;19;20114;-59
2021/12/20 08:35:25;;;;;;;0.00;0.00;;;;;;;9.20;72.78;102343.13;7356849;19;20369;-60
2021/12/20 08:37:53;;;;;;;0.05;0.05;;;;;;;9.16;72.70;102329.19;7356234;19;20014;-58
2021/12/20 08:40:19;;;;;;;;;;;;;;;9.23;72.88;102344.03;7360936;19;20018;-59
2021/12/20 08:42:47;;;;;;;0.00;0.00;;;;;;;9.22;73.16;102341.38;7363609;19;19930;-58
2021/12/20 08:45:14;;;;;;;;;;;;;;;9.24;73.03;102339.69;7361065;19;20018;-58
2021/12/20 08:47:41;;;;;;;0.00;0.00;;;;;;;9.19;72.95;102341.38;7362212;19;19918;-59
2021/12/20 08:50:14;;;;;;;0.00;0.00;;;;;;;9.19;73.15;102336.16;7363801;19;20017;-59
2021/12/20 08:52:39;;;;;;;0.00;0.00;;;;;;;9.18;72.91;102339.63;7352321;19;20728;-59
2021/12/20 08:55:05;;;;;;;0.00;0.00;;;;;;;9.16;73.19;102336.13;7355965;19;20770;-59
2021/12/20 08:57:31;;;;;;;0.00;0.00;;;;;;;9.16;72.96;102338.72;7362022;19;20014;-59
2021/12/20 08:59:56;;;;;;;0.00;0.00;;;;;;;9.16;73.26;102339.59;7348301;19;20664;-59
2021/12/20 09:02:22;;;;;;;0.00;0.00;;;;;;;9.17;72.91;102337.88;7359599;19;20011;-58
2021/12/20 09:04:48;;;;;;;0.00;0.00;;;;;;;9.17;73.22;102333.53;7350964;19;20011;-57
2021/12/20 09:07:16;;;;;;;0.05;0.05;;;;;;;9.17;73.26;102338.72;7368971;19;20073;-59
2021/12/20 09:09:47;;;;;;;0.00;0.00;;;;;;;9.20;73.13;102348.34;7365334;19;20038;-59
2021/12/20 09:12:14;;;;;;;0.00;0.00;;;;;;;9.16;72.84;102341.34;7361714;19;20023;-59
2021/12/20 09:14:40;;;;;;;0.00;0.00;;;;;;;9.21;72.90;102337.03;7361527;19;20472;-58
2021/12/20 09:17:06;;;;;;;0.10;0.10;;;;;;;9.21;72.98;102330.09;7363740;19;20014;-59
2021/12/20 09:19:34;;;;;;;0.00;0.00;;;;;;;9.23;72.93;102330.13;7359504;19;20017;-58
2021/12/20 09:22:00;;;;;;;0.00;0.00;;;;;;;9.24;72.88;102344.91;7368978;19;20035;-59
2021/12/20 09:24:25;;;;;;;0.10;0.10;;;;;;;9.24;72.77;102334.47;7362323;19;20014;-59
2021/12/20 09:26:51;;;;;;;0.00;0.00;;;;;;;9.25;72.84;102336.22;7364338;19;20013;-59
2021/12/20 09:29:16;;;;;;;0.00;0.00;;;;;;;9.27;72.77;102334.47;7368024;19;20010;-60
2021/12/20 09:31:42;;;;;;;0.10;0.10;;;;;;;9.28;72.93;102336.25;7367790;19;20010;-60
2021/12/20 09:34:08;;;;;;;0.00;0.00;;;;;;;9.30;72.70;102334.53;7358767;19;20010;-59
2021/12/20 09:36:33;;;;;;;0.00;0.00;;;;;;;9.31;73.10;102331.91;7364398;19;20034;-59
2021/12/20 09:39:00;;;;;;;0.05;0.05;;;;;;;9.33;72.59;102325.00;7360923;19;20007;-59
2021/12/20 09:44:05;;;;;;;0.08;0.08;;;;;;;9.35;72.41;102328.47;7359668;19;20007;-59
2021/12/20 09:46:31;;;;;;;0.10;0.10;;;;;;;9.36;72.58;102334.56;7368521;19;20505;-57
2021/12/20 09:48:58;;;;;;;0.00;0.00;;;;;;;9.37;72.51;102341.53;7369456;19;20006;-59
2021/12/20 09:51:24;;;;;;;0.08;0.08;;;;;;;9.38;72.55;102335.47;7357263;19;20027;-59
2021/12/20 09:53:50;;;;;;;0.10;0.10;;;;;;;9.39;72.57;102339.81;7367263;19;20025;-59
2021/12/20 09:56:17;;;;;;;0.00;0.00;;;;;;;9.41;72.34;102325.06;7362722;19;20015;-59
2021/12/20 09:58:46;;;;;;;0.00;0.00;;;;;;;9.42;72.82;102332.00;7350851;19;20069;-58
2021/12/20 10:01:15;;;;;;;0.10;0.10;;;;;;;9.43;72.62;102331.16;7367490;19;20122;-59
2021/12/20 10:03:42;;;;;;;0.00;0.00;;;;;;;9.44;72.60;102334.66;7360684;19;20006;-59
2021/12/20 10:06:08;;;;;;;0.00;0.00;;;;;;;9.45;72.74;102344.22;7367213;19;20077;-59
2021/12/20 10:08:36;;;;;;;0.03;0.03;;;;;;;9.47;72.78;102326.81;7369531;19;20077;-59
2021/12/20 10:11:03;;;;;;;;;;;;;;;9.56;72.82;102338.22;7365337;19;20022;-58
2021/12/20 10:13:37;;;;;;;;;;;;;;;9.58;72.71;102338.25;7362063;19;19933;-59
2021/12/20 10:16:13;;;;;;;0.00;0.00;;;;;;;9.57;72.22;102345.16;7351764;19;20011;-60
2021/12/20 10:18:38;;;;;;;0.10;0.10;;;;;;;9.56;71.99;102351.25;7367728;19;20034;-60
2021/12/20 10:21:04;;;;;;;0.08;0.08;;;;;;;9.56;72.47;102348.66;7362779;19;20372;-59
2021/12/20 10:23:33;;;;;;;0.10;0.10;;;;;;;9.57;72.30;102336.47;7368274;19;20003;-59
2021/12/20 10:26:19;;;;;;;0.00;0.00;;;;;;;9.59;71.97;102338.25;7358976;19;20013;-59
2021/12/20 10:28:46;;;;;;;0.00;0.00;;;;;;;9.60;72.23;102339.13;7362409;19;20015;-59
2021/12/20 10:31:15;;;;;;;0.00;0.00;;;;;;;9.64;72.14;102337.41;7361821;19;20030;-59
2021/12/20 10:33:51;;;;;;;0.00;0.00;;;;;;;9.65;72.30;102331.31;7360174;19;20399;-58
2021/12/20 10:36:17;;;;;;;0.05;0.05;;;;;;;9.63;72.08;102336.53;7367856;19;20039;-59
2021/12/20 10:38:45;;;;;;;0.00;0.00;;;;;;;9.65;72.12;102332.19;7360981;19;20010;-59
2021/12/20 10:41:28;;;;;;;0.00;0.00;;;;;;;9.59;72.30;102333.03;7364619;19;20477;-59
2021/12/20 10:43:59;;;;;;;0.00;0.00;;;;;;;9.66;72.05;102343.50;7365583;19;20565;-59
2021/12/20 10:46:33;;;;;;;0.10;0.10;;;;;;;9.70;72.11;102340.06;7355137;19;20014;-59
2021/12/20 10:49:10;;;;;;;0.00;0.00;;;;;;;9.70;72.14;102334.84;7359405;19;20596;-59
2021/12/20 10:51:40;;;;;;;0.10;0.10;;;;;;;9.72;72.15;102338.31;7360691;19;20006;-59
2021/12/20 10:54:11;;;;;;;0.00;0.00;;;;;;;9.73;71.99;102340.06;7359347;19;20015;-59
2021/12/20 10:56:40;;;;;;;0.00;0.00;;;;;;;9.73;71.46;102340.06;7363601;19;20023;-59
2021/12/20 10:59:09;;;;;;;0.10;0.10;;;;;;;9.75;71.83;102340.97;7367485;19;20030;-59
2021/12/20 11:04:27;;;;;;;0.00;0.00;;;;;;;9.78;71.55;102327.91;7251267;19;2004487;-60
2021/12/20 11:09:36;;;;;;;0.00;0.00;;;;;;;9.79;71.53;102330.56;7359264;19;20040;-59
2021/12/20 11:12:07;;;;;;;0.10;0.10;;;;;;;9.79;71.47;102327.09;7358200;19;20007;-60
2021/12/20 11:14:39;;;;;;;0.00;0.00;;;;;;;9.82;71.39;102332.31;7359236;19;20024;-59
2021/12/20 11:17:07;;;;;;;0.10;0.10;;;;;;;9.82;71.42;102329.69;7366421;19;20493;-59
2021/12/20 11:19:34;;;;;;;0.00;0.00;;;;;;;9.79;71.39;102319.25;7356823;19;20018;-59
2021/12/20 11:22:05;;;;;;;0.00;0.00;;;;;;;9.84;71.15;102335.81;7359693;19;20015;-59
2021/12/20 11:24:34;;;;;;;0.10;0.10;;;;;;;9.85;71.20;102340.16;7366363;19;20010;-59
2021/12/20 11:27:03;;;;;;;0.00;0.00;;;;;;;9.85;71.39;102332.34;7362030;19;20023;-59
2021/12/20 11:29:29;;;;;;;0.00;0.00;;;;;;;9.84;71.00;102326.25;7362898;19;21148;-58
2021/12/20 11:31:57;;;;;;;0.10;0.10;;;;;;;9.86;71.06;102334.06;7361337;19;20030;-59
2021/12/20 11:34:23;;;;;;;0.00;0.00;;;;;;;9.85;71.00;102327.13;7356514;19;20018;-59
2021/12/20 11:36:49;;;;;;;0.00;0.00;;;;;;;9.85;71.15;102319.28;7364117;19;20034;-59
2021/12/20 11:39:15;;;;;;;0.00;0.00;;;;;;;9.84;70.99;102325.38;7359520;19;20883;-58
2021/12/20 11:41:41;;;;;;;0.10;0.10;;;;;;;9.85;71.00;102319.28;7358515;19;20630;-59
2021/12/20 11:44:11;;;;;;;0.00;0.00;;;;;;;9.74;70.71;102297.50;7359277;19;20090;-59
2021/12/20 11:46:59;;;;;;;0.00;0.00;;;;;;;9.89;71.29;102315.84;7362230;19;20022;-58
2021/12/20 11:49:26;;;;;;;0.00;0.00;;;;;;;9.87;70.76;102313.19;7359593;19;20010;-59
2021/12/20 11:52:01;;;;;;;0.00;0.00;;;;;;;9.90;71.36;102309.75;7361536;19;21346;-59
2021/12/20 11:54:40;;;;;;;0.10;0.10;;;;;;;9.91;71.04;102308.00;7359223;19;20002;-58